Time;durP1;ratioP1;P1;durP2;ratioP2;P2;SDS_P1;SDS_P2;PMS_P1;PMS_P2;Temp;Humidity;BMP_temperature;BMP_pressure;BME280_temperature;BME280_humidity;BME280_pressure;Samples;Min_cycle;Max_cycle;Signal;HPM_P1;HPM_P2
2021/08/27 00:01:00;;;;;;;8.13;5.80;;;13.10;99.90;;;;;;5071174;28;20090;-76
2021/08/27 00:03:25;;;;;;;7.88;5.32;;;13.10;99.90;;;;;;5072205;28;20395;-75
2021/08/27 00:05:51;;;;;;;7.40;5.30;;;13.10;99.90;;;;;;5071259;28;20394;-76
2021/08/27 00:08:16;;;;;;;9.07;5.70;;;13.20;99.90;;;;;;5072488;28;20028;-76
2021/08/27 00:10:42;;;;;;;7.25;5.82;;;13.20;99.90;;;;;;5071245;28;20027;-76
2021/08/27 00:13:10;;;;;;;11.90;7.22;;;13.20;99.90;;;;;;5072023;28;20028;-76
2021/08/27 00:15:35;;;;;;;10.88;6.72;;;13.20;99.90;;;;;;5081963;28;20390;-75
2021/08/27 00:18:01;;;;;;;9.90;5.97;;;13.00;99.90;;;;;;5092199;28;20020;-75
2021/08/27 00:20:26;;;;;;;8.05;6.10;;;13.00;99.90;;;;;;5092154;28;20455;-75
2021/08/27 00:22:52;;;;;;;6.53;4.90;;;12.90;99.90;;;;;;5089405;28;20032;-75
2021/08/27 00:25:18;;;;;;;9.80;6.70;;;12.90;99.90;;;;;;5071739;28;20028;-75
2021/08/27 00:27:43;;;;;;;9.13;5.72;;;13.00;99.90;;;;;;5071681;28;20020;-75
2021/08/27 00:30:09;;;;;;;8.70;6.35;;;13.00;99.90;;;;;;5071843;28;20029;-75
2021/08/27 00:32:35;;;;;;;8.52;5.35;;;13.10;99.90;;;;;;5071691;28;20024;-75
2021/08/27 00:35:04;;;;;;;10.27;6.28;;;12.90;99.90;;;;;;5071628;28;20399;-75
2021/08/27 00:37:30;;;;;;;9.07;5.90;;;12.90;99.90;;;;;;5071769;28;20521;-74
2021/08/27 00:39:56;;;;;;;11.35;6.80;;;12.90;99.90;;;;;;5071751;28;20056;-74
2021/08/27 00:42:21;;;;;;;11.45;6.57;;;12.80;99.90;;;;;;5071271;28;20020;-73
2021/08/27 00:44:47;;;;;;;9.88;5.93;;;12.80;99.90;;;;;;5070275;28;20119;-74
2021/08/27 00:47:12;;;;;;;10.95;6.35;;;12.70;99.90;;;;;;5071473;28;20035;-75
2021/08/27 00:49:38;;;;;;;10.15;5.82;;;12.60;99.90;;;;;;5071562;28;20024;-74
2021/08/27 00:52:06;;;;;;;7.68;5.90;;;12.70;99.90;;;;;;5071251;28;20032;-75
2021/08/27 00:54:32;;;;;;;11.10;6.75;;;12.80;99.90;;;;;;5071404;28;20035;-74
2021/08/27 00:56:58;;;;;;;8.75;7.18;;;12.90;99.90;;;;;;5071400;28;20036;-74
2021/08/27 00:59:23;;;;;;;10.50;6.60;;;12.80;99.90;;;;;;5071555;28;20036;-74
2021/08/27 01:01:49;;;;;;;11.10;7.25;;;12.90;99.90;;;;;;5087518;28;20028;-74
2021/08/27 01:04:15;;;;;;;11.27;7.40;;;12.70;99.90;;;;;;5082546;28;20490;-74
2021/08/27 01:06:49;;;;;;;9.32;6.20;;;12.70;99.90;;;;;;5070994;28;20028;-73
2021/08/27 01:09:42;;;;;;;11.25;6.82;;;12.70;99.90;;;;;;5071421;28;20108;-74
2021/08/27 01:12:50;;;;;;;8.73;6.70;;;12.60;99.90;;;;;;5041972;28;20122;-74
2021/08/27 01:15:24;;;;;;;12.73;7.38;;;12.70;99.90;;;;;;5062693;28;20036;-74
2021/08/27 01:17:54;;;;;;;10.88;7.03;;;12.70;99.90;;;;;;5076634;28;20154;-74
2021/08/27 01:20:37;;;;;;;10.88;6.18;;;12.70;99.90;;;;;;5071450;28;20063;-74
2021/08/27 01:23:17;;;;;;;10.02;7.20;;;12.80;99.90;;;;;;5071205;28;20029;-74
2021/08/27 01:25:51;;;;;;;12.80;6.68;;;12.80;99.90;;;;;;5071123;28;20036;-74
2021/08/27 01:28:21;;;;;;;8.45;6.30;;;12.80;99.90;;;;;;5069813;28;20525;-74
2021/08/27 01:31:05;;;;;;;10.30;6.85;;;12.80;99.90;;;;;;5069963;28;20043;-75
2021/08/27 01:33:32;;;;;;;8.88;5.90;;;12.90;99.90;;;;;;5071147;28;20028;-74
2021/08/27 01:36:00;;;;;;;11.68;6.85;;;12.90;99.90;;;;;;5070947;28;20082;-74
2021/08/27 01:38:39;;;;;;;12.05;5.95;;;12.90;99.90;;;;;;5071360;28;20575;-74
2021/08/27 01:41:09;;;;;;;9.43;5.38;;;12.70;99.90;;;;;;5070059;28;20025;-75
2021/08/27 01:43:35;;;;;;;9.57;5.75;;;12.70;99.90;;;;;;5071044;28;20410;-74
2021/08/27 01:46:02;;;;;;;12.00;6.55;;;12.70;99.90;;;;;;5070893;28;20474;-73
2021/08/27 01:48:31;;;;;;;11.13;5.85;;;12.60;99.90;;;;;;5071017;28;20582;-73
2021/08/27 01:50:57;;;;;;;11.77;6.75;;;12.70;99.90;;;;;;5071051;28;20025;-73
2021/08/27 01:53:25;;;;;;;7.57;5.53;;;12.60;99.90;;;;;;5070669;28;20032;-74
2021/08/27 01:55:52;;;;;;;10.55;6.22;;;12.70;99.90;;;;;;5073313;28;20060;-74
2021/08/27 01:58:18;;;;;;;12.05;6.53;;;12.70;99.90;;;;;;5074762;28;20114;-74
2021/08/27 02:00:44;;;;;;;13.35;7.70;;;12.70;99.90;;;;;;5094773;28;20468;-75
2021/08/27 02:03:10;;;;;;;11.60;6.63;;;12.70;99.90;;;;;;5079822;28;20457;-75
2021/08/27 02:05:37;;;;;;;15.30;6.88;;;12.60;99.90;;;;;;5074094;28;20100;-74
2021/08/27 02:08:03;;;;;;;9.32;6.63;;;12.60;99.90;;;;;;5074566;28;20509;-75
2021/08/27 02:10:30;;;;;;;10.65;6.10;;;12.60;99.90;;;;;;5093456;28;20112;-75
2021/08/27 02:12:56;;;;;;;10.70;6.22;;;12.60;99.90;;;;;;5079524;28;20021;-75
2021/08/27 02:15:23;;;;;;;5.88;4.70;;;12.50;99.90;;;;;;5082216;28;20105;-75
2021/08/27 02:17:50;;;;;;;7.90;5.68;;;12.50;99.90;;;;;;5078576;28;20020;-74
2021/08/27 02:20:16;;;;;;;12.05;6.25;;;12.40;99.90;;;;;;5073070;28;20123;-74
2021/08/27 02:22:46;;;;;;;10.32;5.55;;;12.30;99.90;;;;;;5089058;28;20059;-74
2021/08/27 02:25:16;;;;;;;10.75;6.18;;;12.20;99.90;;;;;;5074004;28;20032;-75
2021/08/27 02:27:44;;;;;;;8.85;5.47;;;12.10;99.90;;;;;;5072631;28;20031;-76
2021/08/27 02:30:11;;;;;;;8.02;5.00;;;12.10;99.90;;;;;;5073068;28;20217;-76
2021/08/27 02:32:38;;;;;;;9.32;5.07;;;12.10;99.90;;;;;;5074223;28;20094;-76
2021/08/27 02:35:06;;;;;;;6.10;5.25;;;12.10;99.90;;;;;;5074004;28;20032;-75
2021/08/27 02:37:37;;;;;;;6.85;4.32;;;12.10;99.90;;;;;;5077248;28;20028;-75
2021/08/27 02:40:03;;;;;;;12.32;5.30;;;12.00;99.90;;;;;;5094715;28;20024;-75
2021/08/27 02:42:31;;;;;;;7.70;5.88;;;11.80;99.90;;;;;;5075150;28;20115;-75
2021/08/27 02:44:58;;;;;;;9.75;4.32;;;11.90;99.90;;;;;;5073506;28;20070;-75
2021/08/27 02:47:24;;;;;;;8.35;4.45;;;11.90;99.90;;;;;;5072782;28;20032;-74
2021/08/27 02:49:50;;;;;;;10.85;4.55;;;11.90;99.90;;;;;;5073971;28;20028;-74
2021/08/27 02:52:28;;;;;;;9.18;5.90;;;11.80;99.90;;;;;;5072220;28;20020;-74
2021/08/27 02:55:07;;;;;;;7.03;4.28;;;11.70;99.90;;;;;;5073385;28;20021;-75
2021/08/27 02:57:44;;;;;;;7.47;4.75;;;11.70;99.90;;;;;;5073550;28;20051;-75
2021/08/27 03:00:10;;;;;;;6.82;4.43;;;11.70;99.90;;;;;;5073370;28;20749;-75
2021/08/27 03:02:38;;;;;;;6.68;4.93;;;11.80;99.90;;;;;;5072020;28;20487;-75
2021/08/27 03:05:12;;;;;;;6.93;4.80;;;11.90;99.90;;;;;;5073021;28;20454;-75
2021/08/27 03:07:42;;;;;;;6.45;5.05;;;11.80;99.90;;;;;;5072136;28;20036;-76
2021/08/27 03:10:25;;;;;;;5.82;4.68;;;11.80;99.90;;;;;;5071960;28;20047;-76
2021/08/27 03:13:01;;;;;;;7.10;4.60;;;11.70;99.90;;;;;;5073062;28;20499;-75
2021/08/27 03:15:29;;;;;;;;;;;11.50;99.90;;;;;;5081910;28;20016;-75
2021/08/27 03:18:01;;;;;;;6.13;4.13;;;11.60;99.90;;;;;;5077753;28;19995;-75
2021/08/27 03:20:38;;;;;;;7.20;4.05;;;11.60;99.90;;;;;;5071777;28;20028;-74
2021/08/27 03:23:07;;;;;;;7.85;4.22;;;11.50;99.90;;;;;;5071600;28;20051;-75
2021/08/27 03:25:39;;;;;;;5.50;4.00;;;11.50;99.90;;;;;;5071464;28;20032;-74
2021/08/27 03:28:10;;;;;;;7.18;4.18;;;11.50;99.90;;;;;;5071669;28;20115;-74
2021/08/27 03:30:37;;;;;;;9.80;4.20;;;11.50;99.90;;;;;;5072852;28;20025;-75
2021/08/27 03:33:07;;;;;;;6.80;4.38;;;11.40;99.90;;;;;;5072662;28;20142;-74
2021/08/27 03:35:34;;;;;;;7.63;4.60;;;11.50;99.90;;;;;;5072467;28;20024;-74
2021/08/27 03:38:00;;;;;;;6.47;4.00;;;11.40;99.90;;;;;;5072635;28;20098;-74
2021/08/27 03:40:27;;;;;;;6.30;4.45;;;11.40;99.90;;;;;;5072638;28;20024;-74
2021/08/27 03:42:56;;;;;;;6.90;4.38;;;11.40;99.90;;;;;;5072535;28;20486;-74
2021/08/27 03:45:23;;;;;;;9.73;4.85;;;11.30;99.90;;;;;;5072414;28;20394;-74
2021/08/27 03:47:50;;;;;;;7.07;4.75;;;11.30;99.90;;;;;;5072260;28;20474;-74
2021/08/27 03:50:16;;;;;;;11.27;6.55;;;11.20;99.90;;;;;;5072439;28;20025;-73
2021/08/27 03:52:44;;;;;;;8.23;5.05;;;11.20;99.90;;;;;;5072130;28;20097;-74
2021/08/27 03:55:12;;;;;;;6.28;4.80;;;11.10;99.90;;;;;;5072167;28;20029;-74
2021/08/27 03:57:38;;;;;;;7.47;5.30;;;11.20;99.90;;;;;;5072367;28;20576;-74
2021/08/27 04:00:05;;;;;;;7.65;5.18;;;11.20;99.90;;;;;;5073954;28;20032;-74
2021/08/27 04:02:31;;;;;;;7.97;4.72;;;11.20;99.90;;;;;;5091027;28;20043;-74
2021/08/27 04:05:14;;;;;;;7.10;4.88;;;11.20;99.90;;;;;;5088591;28;20106;-74
2021/08/27 04:07:41;;;;;;;10.63;5.20;;;11.20;99.90;;;;;;5083523;28;20478;-74
2021/08/27 04:10:08;;;;;;;31.13;7.68;;;11.20;99.90;;;;;;5085152;28;20021;-74
2021/08/27 04:12:35;;;;;;;119.53;8.50;;;10.90;99.90;;;;;;5086273;28;20440;-74
2021/08/27 04:15:02;;;;;;;68.95;8.68;;;10.60;99.90;;;;;;5091938;28;20016;-74
2021/08/27 04:17:27;;;;;;;82.93;7.13;;;10.60;99.90;;;;;;5080370;28;20020;-74
2021/08/27 04:19:53;;;;;;;119.00;8.32;;;10.40;99.90;;;;;;5090497;28;20032;-74
2021/08/27 04:22:18;;;;;;;81.85;9.20;;;10.40;99.90;;;;;;5080331;28;20021;-74
2021/08/27 04:24:44;;;;;;;16.65;6.95;;;10.60;99.90;;;;;;5088837;28;20024;-74
2021/08/27 04:27:09;;;;;;;11.27;6.55;;;10.50;99.90;;;;;;5085268;28;20027;-74
2021/08/27 04:29:35;;;;;;;8.85;5.47;;;10.60;99.90;;;;;;5087420;28;20023;-74
2021/08/27 04:32:01;;;;;;;5.63;4.95;;;10.70;99.90;;;;;;5091990;28;20035;-74
2021/08/27 04:34:26;;;;;;;6.57;4.55;;;10.80;99.90;;;;;;5091732;28;20024;-73
2021/08/27 04:36:52;;;;;;;9.60;6.80;;;11.00;99.90;;;;;;5079709;28;20036;-74
2021/08/27 04:39:17;;;;;;;6.47;5.57;;;11.10;99.90;;;;;;5089501;28;20039;-74
2021/08/27 04:41:43;;;;;;;9.80;7.22;;;11.20;99.90;;;;;;5092019;28;20455;-74
2021/08/27 04:44:08;;;;;;;11.30;6.78;;;11.00;99.90;;;;;;5074007;28;20063;-74
2021/08/27 04:46:34;;;;;;;9.73;7.60;;;11.10;99.90;;;;;;5080983;28;20050;-73
2021/08/27 04:48:59;;;;;;;9.90;7.10;;;11.10;99.90;;;;;;5082079;28;20418;-74
2021/08/27 04:51:25;;;;;;;14.70;7.68;;;11.00;99.90;;;;;;5092879;28;20024;-74
2021/08/27 04:53:51;;;;;;;8.88;6.88;;;11.10;99.90;;;;;;5091646;28;20085;-74
2021/08/27 04:56:17;;;;;;;9.65;7.53;;;11.20;99.90;;;;;;5080879;28;20020;-73
2021/08/27 04:58:43;;;;;;;9.82;7.35;;;11.20;99.90;;;;;;5085429;28;20108;-74
2021/08/27 05:01:08;;;;;;;15.07;8.55;;;11.00;99.90;;;;;;5082531;28;20055;-74
2021/08/27 05:03:35;;;;;;;17.38;8.50;;;10.80;99.90;;;;;;5088145;28;20723;-74
2021/08/27 05:06:00;;;;;;;9.13;7.05;;;11.00;99.90;;;;;;5081772;28;20501;-75
2021/08/27 05:08:26;;;;;;;14.52;7.88;;;10.90;99.90;;;;;;5091730;28;20032;-75
2021/08/27 05:10:51;;;;;;;13.35;9.15;;;11.00;99.90;;;;;;5080172;28;20024;-75
2021/08/27 05:13:17;;;;;;;15.57;8.45;;;11.00;99.90;;;;;;5071352;28;20021;-74
2021/08/27 05:15:42;;;;;;;11.98;7.22;;;11.00;99.90;;;;;;5081980;28;20032;-73
2021/08/27 05:18:08;;;;;;;10.73;7.45;;;11.10;99.90;;;;;;5091577;28;20100;-74
2021/08/27 05:20:33;;;;;;;15.65;8.07;;;11.20;99.90;;;;;;5081108;28;20080;-73
2021/08/27 05:22:59;;;;;;;10.20;7.70;;;11.30;99.90;;;;;;5087401;28;20033;-75
2021/08/27 05:25:25;;;;;;;12.68;7.72;;;11.30;99.90;;;;;;5071224;28;20020;-73
2021/08/27 05:27:52;;;;;;;10.88;8.00;;;11.30;99.90;;;;;;5088399;28;20035;-74
2021/08/27 05:30:20;;;;;;;10.65;7.75;;;11.30;99.90;;;;;;5093497;28;20374;-74
2021/08/27 05:32:47;;;;;;;13.82;7.97;;;11.20;99.90;;;;;;5081799;28;20020;-74
2021/08/27 05:35:13;;;;;;;11.88;8.18;;;11.30;99.90;;;;;;5095275;28;20108;-74
2021/08/27 05:37:39;;;;;;;12.18;8.90;;;11.40;99.90;;;;;;5081739;28;20024;-74
2021/08/27 05:40:06;;;;;;;12.88;8.50;;;11.50;99.90;;;;;;5084416;28;20074;-74
2021/08/27 05:42:31;;;;;;;16.70;9.70;;;11.50;99.90;;;;;;5079252;28;20506;-73
2021/08/27 05:44:57;;;;;;;14.82;7.30;;;11.50;99.90;;;;;;5083989;28;20028;-74
2021/08/27 05:47:23;;;;;;;12.85;8.32;;;11.70;99.90;;;;;;5076104;28;20437;-74
2021/08/27 05:49:48;;;;;;;12.73;8.88;;;11.60;99.90;;;;;;5083378;28;20031;-74
2021/08/27 05:52:14;;;;;;;12.90;8.15;;;11.70;99.90;;;;;;5090336;28;20024;-73
2021/08/27 05:54:40;;;;;;;12.25;9.52;;;11.60;99.90;;;;;;5101489;28;20141;-74
2021/08/27 05:57:05;;;;;;;10.07;8.27;;;11.80;99.90;;;;;;5082831;28;20081;-74
2021/08/27 05:59:31;;;;;;;13.10;9.30;;;11.80;99.90;;;;;;5084266;28;20052;-74
2021/08/27 06:01:57;;;;;;;11.93;9.25;;;11.90;99.90;;;;;;5082352;28;20534;-74
2021/08/27 06:04:22;;;;;;;10.23;7.93;;;11.80;99.90;;;;;;5089758;28;20025;-74
2021/08/27 06:06:49;;;;;;;14.05;10.30;;;11.80;99.90;;;;;;5081833;28;20413;-74
2021/08/27 06:09:15;;;;;;;12.45;9.80;;;11.80;99.90;;;;;;5084198;28;20016;-74
2021/08/27 06:11:40;;;;;;;11.93;9.73;;;11.80;99.90;;;;;;5088057;28;20498;-74
2021/08/27 06:14:06;;;;;;;13.30;8.77;;;11.80;99.90;;;;;;5072938;28;20497;-74
2021/08/27 06:16:33;;;;;;;16.05;9.95;;;11.80;99.90;;;;;;5092244;28;20020;-74
2021/08/27 06:18:59;;;;;;;16.40;9.90;;;11.90;99.90;;;;;;5083874;28;20028;-75
2021/08/27 06:21:25;;;;;;;12.18;9.00;;;11.80;99.90;;;;;;5087864;28;20047;-74
2021/08/27 06:23:52;;;;;;;14.48;8.65;;;11.80;99.90;;;;;;5084884;28;20063;-74
2021/08/27 06:26:18;;;;;;;12.95;8.82;;;11.80;99.90;;;;;;5080773;28;20013;-75
2021/08/27 06:28:44;;;;;;;14.27;9.38;;;11.80;99.90;;;;;;5083669;28;20542;-74
2021/08/27 06:31:09;;;;;;;10.43;8.93;;;11.80;99.90;;;;;;5087718;28;20108;-74
2021/08/27 06:33:35;;;;;;;12.10;9.15;;;11.90;99.90;;;;;;5084820;28;20027;-74
2021/08/27 06:36:00;;;;;;;11.68;8.90;;;11.90;99.90;;;;;;5076747;28;20092;-74
2021/08/27 06:38:26;;;;;;;11.70;8.20;;;12.00;99.90;;;;;;5083208;28;20028;-75
2021/08/27 06:40:56;;;;;;;11.95;9.30;;;12.00;99.90;;;;;;5090501;28;20029;-74
2021/08/27 06:43:25;;;;;;;8.90;8.00;;;12.20;99.90;;;;;;5084595;28;20039;-72
2021/08/27 06:45:51;;;;;;;13.80;7.90;;;12.20;99.90;;;;;;5093834;28;20028;-71
2021/08/27 06:48:17;;;;;;;13.18;8.57;;;12.20;99.90;;;;;;5081377;28;20025;-72
2021/08/27 06:50:42;;;;;;;14.18;8.30;;;12.10;99.90;;;;;;5079203;28;20066;-75
2021/08/27 06:53:08;;;;;;;11.43;7.68;;;12.10;99.90;;;;;;5093629;28;20032;-75
2021/08/27 06:55:35;;;;;;;13.45;8.98;;;12.20;99.90;;;;;;5080114;28;20027;-74
2021/08/27 06:58:01;;;;;;;11.18;8.20;;;12.10;99.90;;;;;;5078597;28;20028;-74
2021/08/27 07:00:27;;;;;;;11.98;7.70;;;12.10;99.90;;;;;;5092070;28;20070;-74
2021/08/27 07:02:53;;;;;;;10.10;7.70;;;12.20;99.90;;;;;;5081830;28;20474;-74
2021/08/27 07:05:18;;;;;;;10.90;7.78;;;12.20;99.90;;;;;;5086984;28;20017;-74
2021/08/27 07:07:44;;;;;;;12.80;8.02;;;12.20;99.90;;;;;;5085145;28;20036;-74
2021/08/27 07:10:10;;;;;;;12.25;7.22;;;12.20;99.90;;;;;;5078782;28;20031;-74
2021/08/27 07:12:35;;;;;;;16.25;8.35;;;12.10;99.90;;;;;;5081525;28;20112;-74
2021/08/27 07:15:02;;;;;;;9.05;7.47;;;12.00;99.90;;;;;;5091714;28;20095;-73
2021/08/27 07:17:28;;;;;;;11.68;8.38;;;12.10;99.90;;;;;;5081577;28;20024;-74
2021/08/27 07:19:53;;;;;;;11.13;7.63;;;12.10;99.90;;;;;;5086945;28;20036;-73
2021/08/27 07:22:19;;;;;;;10.50;7.10;;;12.20;99.90;;;;;;5073090;28;20031;-73
2021/08/27 07:24:44;;;;;;;10.05;6.88;;;12.20;99.90;;;;;;5090531;28;20063;-73
2021/08/27 07:27:10;;;;;;;12.73;7.45;;;12.30;99.90;;;;;;5080141;28;20367;-73
2021/08/27 07:29:36;;;;;;;11.70;7.30;;;12.30;99.90;;;;;;5085565;28;20085;-73
2021/08/27 07:32:03;;;;;;;13.05;8.55;;;12.40;99.90;;;;;;5082705;28;20386;-73
2021/08/27 07:34:29;;;;;;;9.13;7.65;;;12.40;99.90;;;;;;5092881;28;20089;-73
2021/08/27 07:36:54;;;;;;;11.70;6.93;;;12.50;99.90;;;;;;5082333;28;20542;-73
2021/08/27 07:39:19;;;;;;;9.32;7.25;;;12.40;99.90;;;;;;5086260;28;20064;-74
2021/08/27 07:41:45;;;;;;;10.50;7.00;;;12.50;99.90;;;;;;5083323;28;20055;-73
2021/08/27 07:44:11;;;;;;;9.57;6.47;;;12.80;99.90;;;;;;5075505;28;20028;-73
2021/08/27 07:46:38;;;;;;;11.95;7.28;;;12.70;99.90;;;;;;5083278;28;20233;-73
2021/08/27 07:49:04;;;;;;;8.30;6.50;;;12.60;99.90;;;;;;5088878;28;20024;-73
2021/08/27 07:51:29;;;;;;;12.40;6.95;;;12.70;99.90;;;;;;5083498;28;20024;-73
2021/08/27 07:53:55;;;;;;;15.20;6.25;;;12.80;99.90;;;;;;5077310;28;20497;-73
2021/08/27 07:56:20;;;;;;;7.95;6.10;;;12.70;99.90;;;;;;5080322;28;20066;-73
2021/08/27 07:58:46;;;;;;;8.88;5.40;;;12.80;99.90;;;;;;5090084;28;20052;-73
2021/08/27 08:01:11;;;;;;;12.55;6.15;;;12.70;99.90;;;;;;5081935;28;20024;-73
2021/08/27 08:03:37;;;;;;;8.57;5.15;;;12.60;99.90;;;;;;5086117;28;20848;-73
2021/08/27 08:06:02;;;;;;;7.85;6.03;;;12.70;99.90;;;;;;5082932;28;20028;-74
2021/08/27 08:08:28;;;;;;;8.77;5.53;;;12.80;99.90;;;;;;5078934;28;20032;-73
2021/08/27 08:10:53;;;;;;;9.75;5.45;;;12.70;99.90;;;;;;5092524;28;20032;-73
2021/08/27 08:13:19;;;;;;;9.50;5.45;;;12.70;99.90;;;;;;5088811;28;20104;-73
2021/08/27 08:15:45;;;;;;;9.55;5.30;;;12.80;99.90;;;;;;5082914;28;20025;-73
2021/08/27 08:18:10;;;;;;;10.80;5.88;;;12.90;99.90;;;;;;5088079;28;20539;-74
2021/08/27 08:20:36;;;;;;;10.95;6.53;;;13.00;99.90;;;;;;5083231;28;20425;-73
2021/08/27 08:23:01;;;;;;;8.30;5.38;;;13.10;99.90;;;;;;5078662;28;20066;-73
2021/08/27 08:25:27;;;;;;;11.68;5.10;;;13.10;99.90;;;;;;5081229;28;20024;-73
2021/08/27 08:27:52;;;;;;;6.60;4.45;;;13.20;99.90;;;;;;5089536;28;20078;-73
2021/08/27 08:30:18;;;;;;;8.63;5.10;;;13.20;99.90;;;;;;5081404;28;20051;-73
2021/08/27 08:32:43;;;;;;;10.85;5.50;;;13.20;99.90;;;;;;5085398;28;20036;-73
2021/08/27 08:35:09;;;;;;;8.10;4.80;;;13.30;99.90;;;;;;5081275;28;20085;-74
2021/08/27 08:37:41;;;;;;;8.23;5.22;;;13.50;99.90;;;;;;5078447;28;20035;-74
2021/08/27 08:40:09;;;;;;;7.53;4.97;;;13.50;99.90;;;;;;5079818;28;20078;-74
2021/08/27 08:42:36;;;;;;;7.03;4.22;;;13.40;99.90;;;;;;5085192;28;20024;-73
2021/08/27 08:45:03;;;;;;;8.35;4.93;;;13.50;99.90;;;;;;5083135;28;20441;-74
2021/08/27 08:47:29;;;;;;;7.78;5.28;;;13.70;99.90;;;;;;5083157;28;20043;-74
2021/08/27 08:49:57;;;;;;;10.82;5.43;;;13.50;99.90;;;;;;5091662;28;20030;-73
2021/08/27 08:52:25;;;;;;;6.20;4.72;;;13.60;99.90;;;;;;5089080;28;20087;-73
2021/08/27 08:54:51;;;;;;;6.57;4.30;;;13.70;99.90;;;;;;5088242;28;20027;-74
2021/08/27 08:57:20;;;;;;;9.40;4.28;;;13.90;99.90;;;;;;5084117;28;20020;-74
2021/08/27 08:59:45;;;;;;;9.60;3.95;;;13.80;99.90;;;;;;5079009;28;20032;-73
2021/08/27 09:02:11;;;;;;;9.65;3.95;;;13.70;99.90;;;;;;5083765;28;20022;-73
2021/08/27 09:04:36;;;;;;;7.28;3.72;;;13.70;99.90;;;;;;5083897;28;20035;-74
2021/08/27 09:07:02;;;;;;;7.78;3.80;;;13.70;99.90;;;;;;5088390;28;20032;-74
2021/08/27 09:09:30;;;;;;;6.10;3.38;;;14.00;99.90;;;;;;5088831;28;20482;-74
2021/08/27 09:11:56;;;;;;;10.13;4.22;;;14.00;99.90;;;;;;5082311;28;20027;-74
2021/08/27 09:14:28;;;;;;;6.68;3.72;;;14.00;99.90;;;;;;5082483;28;20040;-73
2021/08/27 09:17:04;;;;;;;7.07;3.20;;;14.20;99.90;;;;;;5082770;28;20035;-74
2021/08/27 09:19:50;;;;;;;6.05;3.05;;;14.10;99.90;;;;;;5080297;28;20051;-72
2021/08/27 09:22:19;;;;;;;6.15;3.28;;;13.90;99.90;;;;;;5077498;28;20027;-74
2021/08/27 09:24:44;;;;;;;5.40;3.47;;;14.00;99.90;;;;;;5087351;28;20029;-74
2021/08/27 09:27:10;;;;;;;7.53;3.53;;;14.10;99.90;;;;;;5087236;28;20032;-74
2021/08/27 09:29:42;;;;;;;7.38;3.25;;;14.10;99.90;;;;;;5090669;28;20025;-74
2021/08/27 09:32:29;;;;;;;4.20;3.03;;;14.10;99.90;;;;;;5074810;28;20044;-74
2021/08/27 09:35:02;;;;;;;7.15;3.15;;;14.30;99.90;;;;;;5082757;28;20096;-74
2021/08/27 09:37:40;;;;;;;5.22;3.63;;;14.70;99.90;;;;;;5081952;28;20027;-75
2021/08/27 09:40:08;;;;;;;6.80;3.25;;;14.60;99.90;;;;;;5101869;28;20107;-74
2021/08/27 09:42:49;;;;;;;6.43;3.20;;;14.50;99.90;;;;;;5091382;28;20503;-75
2021/08/27 09:45:16;;;;;;;5.50;2.90;;;14.70;99.90;;;;;;5075323;28;20047;-74
2021/08/27 09:48:02;;;;;;;6.88;2.70;;;14.60;99.90;;;;;;5095192;28;20032;-75
2021/08/27 09:50:33;;;;;;;5.35;2.70;;;14.50;99.90;;;;;;5095195;28;20024;-74
2021/08/27 09:53:09;;;;;;;6.03;2.90;;;14.80;99.90;;;;;;5082867;28;20506;-75
2021/08/27 09:55:36;;;;;;;;;;;14.60;99.90;;;;;;5088673;28;20033;-74
2021/08/27 09:58:04;;;;;;;;;;;14.50;99.90;;;;;;5086422;28;19908;-75
2021/08/27 10:00:33;;;;;;;5.68;3.00;;;14.50;99.90;;;;;;5081382;28;19986;-74
2021/08/27 10:03:02;;;;;;;6.55;3.30;;;14.40;99.90;;;;;;5090291;28;20505;-76
2021/08/27 10:05:38;;;;;;;7.28;3.72;;;14.70;99.90;;;;;;5081459;28;20020;-75
2021/08/27 10:08:36;;;;;;;8.80;3.88;;;14.60;99.90;;;;;;5081227;28;20059;-75
2021/08/27 10:11:19;;;;;;;8.10;3.15;;;14.90;99.90;;;;;;5050010;28;20034;-75
2021/08/27 10:13:46;;;;;;;5.72;2.88;;;15.00;99.90;;;;;;5082794;28;20018;-75
2021/08/27 10:16:12;;;;;;;6.43;2.83;;;14.80;99.90;;;;;;5080015;28;20073;-76
2021/08/27 10:18:38;;;;;;;4.95;3.05;;;14.70;99.90;;;;;;5094884;28;20030;-75
2021/08/27 10:21:05;;;;;;;3.85;2.60;;;14.90;99.90;;;;;;5091234;28;20032;-75
2021/08/27 10:23:31;;;;;;;4.32;2.75;;;15.10;99.90;;;;;;5098313;28;20046;-75
2021/08/27 10:26:09;;;;;;;5.55;2.65;;;15.10;99.90;;;;;;5092805;28;20028;-75
2021/08/27 10:28:34;;;;;;;5.03;2.35;;;15.30;99.90;;;;;;5082538;28;20028;-75
2021/08/27 10:31:02;;;;;;;6.00;2.50;;;15.50;99.90;;;;;;5091298;28;20355;-75
2021/08/27 10:33:42;;;;;;;4.15;2.50;;;15.70;99.90;;;;;;5076405;28;20108;-75
2021/08/27 10:36:23;;;;;;;5.30;2.35;;;15.80;99.90;;;;;;5086930;28;20048;-75
2021/08/27 10:38:54;;;;;;;4.45;2.40;;;15.80;99.90;;;;;;5086469;28;20035;-75
2021/08/27 10:41:27;;;;;;;3.63;2.70;;;15.80;99.90;;;;;;5085296;28;20081;-73
2021/08/27 10:44:01;;;;;;;6.03;2.80;;;15.50;99.90;;;;;;5092221;28;20107;-74
2021/08/27 10:46:45;;;;;;;5.45;2.97;;;15.50;99.90;;;;;;5079805;28;20499;-75
2021/08/27 10:49:14;;;;;;;5.75;2.55;;;15.20;99.90;;;;;;5090133;28;20020;-75
2021/08/27 10:51:47;;;;;;;5.53;2.70;;;15.00;99.90;;;;;;5099233;28;20591;-74
2021/08/27 10:54:14;;;;;;;2.38;2.08;;;14.80;99.90;;;;;;5085097;28;20101;-74
2021/08/27 10:56:50;;;;;;;4.90;2.55;;;14.70;99.90;;;;;;5085254;28;20020;-74
2021/08/27 10:59:18;;;;;;;7.03;2.55;;;14.70;99.90;;;;;;5087637;28;20095;-74
2021/08/27 11:01:59;;;;;;;5.82;2.75;;;14.80;99.90;;;;;;5078585;28;20039;-74
2021/08/27 11:04:27;;;;;;;2.85;2.25;;;15.00;99.90;;;;;;5091895;28;20020;-74
2021/08/27 11:06:54;;;;;;;6.65;2.80;;;15.30;99.90;;;;;;5083524;28;20024;-71
2021/08/27 11:09:27;;;;;;;3.95;2.33;;;15.40;99.90;;;;;;5089454;28;20059;-74
2021/08/27 11:12:04;;;;;;;3.58;2.65;;;15.60;99.90;;;;;;5080025;28;20017;-75
2021/08/27 11:14:30;;;;;;;6.18;2.42;;;16.00;99.90;;;;;;5078067;28;20098;-74
2021/08/27 11:17:01;;;;;;;5.38;2.78;;;15.90;99.90;;;;;;5084758;28;20096;-74
2021/08/27 11:19:31;;;;;;;3.92;2.00;;;15.80;99.90;;;;;;5091122;28;20020;-74
2021/08/27 11:22:30;;;;;;;8.15;2.80;;;15.80;99.90;;;;;;5081399;28;20108;-75
2021/08/27 11:25:07;;;;;;;3.50;2.20;;;15.70;99.90;;;;;;5079876;28;20024;-74
2021/08/27 11:27:34;;;;;;;2.97;2.33;;;16.10;99.90;;;;;;5077689;28;20020;-74
2021/08/27 11:30:28;;;;;;;8.05;2.03;;;16.00;99.90;;;;;;5073089;28;20382;-74
2021/08/27 11:32:55;;;;;;;4.80;2.00;;;15.60;99.90;;;;;;5091885;28;20047;-74
2021/08/27 11:35:22;;;;;;;6.90;2.50;;;16.20;99.90;;;;;;5080717;28;20258;-71
2021/08/27 11:37:58;;;;;;;4.07;1.98;;;16.90;99.90;;;;;;5078363;28;20474;-75
2021/08/27 11:40:24;;;;;;;2.30;2.00;;;17.00;99.90;;;;;;5092741;28;20032;-74
2021/08/27 11:42:56;;;;;;;4.78;2.03;;;17.10;99.90;;;;;;5078455;28;20031;-74
2021/08/27 11:45:25;;;;;;;4.55;1.60;;;16.80;99.90;;;;;;5079400;28;20031;-74
2021/08/27 11:47:52;;;;;;;2.47;1.95;;;16.60;99.90;;;;;;5084628;28;20031;-74
2021/08/27 11:50:23;;;;;;;4.22;2.10;;;16.90;99.90;;;;;;5086168;28;20075;-74
2021/08/27 11:52:50;;;;;;;4.88;2.13;;;16.40;99.90;;;;;;5079970;28;20028;-75
2021/08/27 11:55:17;;;;;;;3.80;1.70;;;16.40;99.90;;;;;;5090589;28;20024;-75
2021/08/27 11:57:58;;;;;;;4.97;1.80;;;16.90;99.90;;;;;;5080100;28;20016;-75
2021/08/27 12:00:42;;;;;;;2.83;1.60;;;16.90;99.90;;;;;;5079278;28;20031;-75
2021/08/27 12:03:09;;;;;;;3.38;1.65;;;17.10;99.90;;;;;;5078950;28;20081;-71
2021/08/27 12:05:35;;;;;;;3.97;2.33;;;16.90;99.90;;;;;;5085306;28;20028;-74
2021/08/27 12:08:03;;;;;;;2.45;1.50;;;17.10;99.90;;;;;;5085997;28;20589;-74
2021/08/27 12:10:35;;;;;;;3.10;1.70;;;17.30;99.90;;;;;;5080888;28;20031;-74
2021/08/27 12:13:02;;;;;;;2.40;1.80;;;17.40;99.90;;;;;;5078957;28;20021;-75
2021/08/27 12:15:37;;;;;;;2.30;1.65;;;16.90;99.90;;;;;;5073354;28;20612;-75
2021/08/27 12:18:09;;;;;;;3.45;1.77;;;17.10;99.90;;;;;;5085872;28;20037;-74
2021/08/27 12:20:45;;;;;;;3.42;1.92;;;16.60;99.90;;;;;;5082760;28;20490;-74
2021/08/27 12:23:14;;;;;;;3.35;1.73;;;16.20;99.90;;;;;;5078655;28;20111;-74
2021/08/27 12:25:42;;;;;;;4.18;2.15;;;16.10;99.90;;;;;;5077962;28;20399;-74
2021/08/27 12:28:14;;;;;;;3.78;2.08;;;15.60;99.90;;;;;;5084295;28;20441;-74
2021/08/27 12:30:50;;;;;;;2.90;2.22;;;15.20;99.90;;;;;;5085641;28;20055;-74
2021/08/27 12:33:17;;;;;;;3.30;1.92;;;15.20;99.90;;;;;;5092100;28;20016;-74
2021/08/27 12:35:43;;;;;;;3.03;2.20;;;15.50;99.90;;;;;;5076722;28;20070;-74
2021/08/27 12:38:09;;;;;;;2.83;2.08;;;15.80;99.90;;;;;;5080053;28;20020;-74
2021/08/27 12:40:35;;;;;;;4.10;2.30;;;16.20;99.90;;;;;;5090367;28;20070;-75
2021/08/27 12:43:04;;;;;;;2.58;1.80;;;16.50;99.90;;;;;;5080230;28;20020;-76
2021/08/27 12:45:45;;;;;;;4.13;2.30;;;16.90;99.90;;;;;;5077845;28;20051;-75
2021/08/27 12:48:14;;;;;;;4.70;1.80;;;16.80;99.90;;;;;;5092272;28;20020;-75
2021/08/27 12:51:00;;;;;;;1.95;1.30;;;16.60;99.90;;;;;;5087182;28;20017;-74